sensor_id;sensor_type;location;lat;lon;timestamp;P1;durP1;ratioP1;P2;durP2;ratioP2
62616;SDS011;62539;51.190;6.808;2022-08-19T00:01:30;5.90;;;3.97;;
62616;SDS011;62539;51.190;6.808;2022-08-19T00:04:00;4.93;;;3.85;;
62616;SDS011;62539;51.190;6.808;2022-08-19T00:06:30;4.72;;;3.65;;
62616;SDS011;62539;51.190;6.808;2022-08-19T00:08:56;5.63;;;3.78;;
62616;SDS011;62539;51.190;6.808;2022-08-19T00:11:23;5.05;;;3.50;;
62616;SDS011;62539;51.190;6.808;2022-08-19T00:13:50;5.95;;;3.90;;
62616;SDS011;62539;51.190;6.808;2022-08-19T00:16:19;5.95;;;4.15;;
62616;SDS011;62539;51.190;6.808;2022-08-19T00:18:45;4.93;;;4.03;;
62616;SDS011;62539;51.190;6.808;2022-08-19T00:21:12;6.38;;;3.80;;
62616;SDS011;62539;51.190;6.808;2022-08-19T00:23:38;15.30;;;3.90;;
62616;SDS011;62539;51.190;6.808;2022-08-19T00:26:04;4.85;;;3.55;;
62616;SDS011;62539;51.190;6.808;2022-08-19T00:28:31;9.13;;;4.10;;
62616;SDS011;62539;51.190;6.808;2022-08-19T00:30:57;4.00;;;3.50;;
62616;SDS011;62539;51.190;6.808;2022-08-19T00:33:25;4.60;;;3.60;;
62616;SDS011;62539;51.190;6.808;2022-08-19T00:35:50;4.03;;;3.63;;
62616;SDS011;62539;51.190;6.808;2022-08-19T00:38:16;4.70;;;3.97;;
62616;SDS011;62539;51.190;6.808;2022-08-19T00:40:43;5.13;;;3.92;;
62616;SDS011;62539;51.190;6.808;2022-08-19T00:43:11;5.75;;;3.90;;
62616;SDS011;62539;51.190;6.808;2022-08-19T00:45:38;6.47;;;4.07;;
62616;SDS011;62539;51.190;6.808;2022-08-19T00:48:09;9.20;;;4.25;;
62616;SDS011;62539;51.190;6.808;2022-08-19T00:50:35;6.47;;;4.20;;
62616;SDS011;62539;51.190;6.808;2022-08-19T00:53:00;5.28;;;3.80;;
62616;SDS011;62539;51.190;6.808;2022-08-19T00:55:29;6.47;;;3.65;;
62616;SDS011;62539;51.190;6.808;2022-08-19T00:58:00;6.38;;;3.75;;
62616;SDS011;62539;51.190;6.808;2022-08-19T01:00:39;4.65;;;4.00;;
62616;SDS011;62539;51.190;6.808;2022-08-19T01:03:06;4.97;;;3.72;;
62616;SDS011;62539;51.190;6.808;2022-08-19T01:05:35;5.28;;;3.95;;
62616;SDS011;62539;51.190;6.808;2022-08-19T01:08:05;5.97;;;4.18;;
62616;SDS011;62539;51.190;6.808;2022-08-19T01:10:35;7.38;;;4.25;;
62616;SDS011;62539;51.190;6.808;2022-08-19T01:13:09;5.45;;;3.97;;
62616;SDS011;62539;51.190;6.808;2022-08-19T01:15:42;4.80;;;3.97;;
62616;SDS011;62539;51.190;6.808;2022-08-19T01:18:15;4.85;;;3.78;;
62616;SDS011;62539;51.190;6.808;2022-08-19T01:20:44;5.00;;;3.87;;
62616;SDS011;62539;51.190;6.808;2022-08-19T01:23:11;5.53;;;4.10;;
62616;SDS011;62539;51.190;6.808;2022-08-19T01:25:48;4.68;;;3.83;;
62616;SDS011;62539;51.190;6.808;2022-08-19T01:30:46;6.63;;;4.13;;
62616;SDS011;62539;51.190;6.808;2022-08-19T01:33:12;5.10;;;3.92;;
62616;SDS011;62539;51.190;6.808;2022-08-19T01:35:39;5.72;;;3.47;;
62616;SDS011;62539;51.190;6.808;2022-08-19T01:38:07;4.65;;;3.88;;
62616;SDS011;62539;51.190;6.808;2022-08-19T01:40:43;4.70;;;4.07;;
62616;SDS011;62539;51.190;6.808;2022-08-19T01:43:09;5.15;;;4.20;;
62616;SDS011;62539;51.190;6.808;2022-08-19T01:45:34;5.57;;;3.83;;
62616;SDS011;62539;51.190;6.808;2022-08-19T01:48:01;8.15;;;4.07;;
62616;SDS011;62539;51.190;6.808;2022-08-19T01:50:27;7.93;;;4.15;;
62616;SDS011;62539;51.190;6.808;2022-08-19T01:52:56;4.10;;;3.70;;
62616;SDS011;62539;51.190;6.808;2022-08-19T01:55:21;6.72;;;4.07;;
62616;SDS011;62539;51.190;6.808;2022-08-19T01:57:50;7.10;;;3.95;;
62616;SDS011;62539;51.190;6.808;2022-08-19T02:00:23;6.90;;;3.95;;
62616;SDS011;62539;51.190;6.808;2022-08-19T02:02:52;5.22;;;4.18;;
62616;SDS011;62539;51.190;6.808;2022-08-19T02:05:18;4.93;;;4.10;;
62616;SDS011;62539;51.190;6.808;2022-08-19T02:07:45;4.30;;;3.80;;
62616;SDS011;62539;51.190;6.808;2022-08-19T02:10:14;4.22;;;3.50;;
62616;SDS011;62539;51.190;6.808;2022-08-19T02:12:46;8.95;;;4.00;;
62616;SDS011;62539;51.190;6.808;2022-08-19T02:15:12;4.65;;;4.00;;
62616;SDS011;62539;51.190;6.808;2022-08-19T02:17:37;4.50;;;4.10;;
62616;SDS011;62539;51.190;6.808;2022-08-19T02:20:04;5.28;;;4.03;;
62616;SDS011;62539;51.190;6.808;2022-08-19T02:22:31;5.18;;;4.13;;
62616;SDS011;62539;51.190;6.808;2022-08-19T02:24:57;6.95;;;3.72;;
62616;SDS011;62539;51.190;6.808;2022-08-19T02:27:22;4.90;;;3.90;;
62616;SDS011;62539;51.190;6.808;2022-08-19T02:29:48;7.32;;;3.90;;
62616;SDS011;62539;51.190;6.808;2022-08-19T02:32:15;4.60;;;3.80;;
62616;SDS011;62539;51.190;6.808;2022-08-19T02:34:43;11.20;;;3.92;;
62616;SDS011;62539;51.190;6.808;2022-08-19T02:37:09;4.00;;;3.60;;
62616;SDS011;62539;51.190;6.808;2022-08-19T02:39:54;6.72;;;4.22;;
62616;SDS011;62539;51.190;6.808;2022-08-19T02:42:19;6.13;;;4.38;;
62616;SDS011;62539;51.190;6.808;2022-08-19T02:44:45;10.48;;;4.20;;
62616;SDS011;62539;51.190;6.808;2022-08-19T02:47:10;6.43;;;4.28;;
62616;SDS011;62539;51.190;6.808;2022-08-19T02:49:36;4.45;;;4.05;;
62616;SDS011;62539;51.190;6.808;2022-08-19T02:52:02;7.28;;;4.43;;
62616;SDS011;62539;51.190;6.808;2022-08-19T02:54:28;5.40;;;4.30;;
62616;SDS011;62539;51.190;6.808;2022-08-19T02:56:53;4.97;;;3.80;;
62616;SDS011;62539;51.190;6.808;2022-08-19T02:59:19;6.28;;;4.50;;
62616;SDS011;62539;51.190;6.808;2022-08-19T03:01:46;6.80;;;4.32;;
62616;SDS011;62539;51.190;6.808;2022-08-19T03:04:14;4.75;;;3.85;;
62616;SDS011;62539;51.190;6.808;2022-08-19T03:06:42;8.65;;;4.22;;
62616;SDS011;62539;51.190;6.808;2022-08-19T03:09:11;5.10;;;4.30;;
62616;SDS011;62539;51.190;6.808;2022-08-19T03:11:37;5.10;;;4.10;;
62616;SDS011;62539;51.190;6.808;2022-08-19T03:14:04;4.47;;;3.80;;
62616;SDS011;62539;51.190;6.808;2022-08-19T03:16:34;5.25;;;4.15;;
62616;SDS011;62539;51.190;6.808;2022-08-19T03:21:38;5.28;;;4.75;;
62616;SDS011;62539;51.190;6.808;2022-08-19T03:24:06;6.72;;;4.38;;
62616;SDS011;62539;51.190;6.808;2022-08-19T03:26:34;7.35;;;4.95;;
62616;SDS011;62539;51.190;6.808;2022-08-19T03:29:09;6.35;;;4.30;;
62616;SDS011;62539;51.190;6.808;2022-08-19T03:31:36;5.78;;;4.03;;
62616;SDS011;62539;51.190;6.808;2022-08-19T03:34:04;6.22;;;4.93;;
62616;SDS011;62539;51.190;6.808;2022-08-19T03:36:29;6.22;;;5.18;;
62616;SDS011;62539;51.190;6.808;2022-08-19T03:38:56;10.18;;;5.70;;
62616;SDS011;62539;51.190;6.808;2022-08-19T03:41:29;7.18;;;5.63;;
62616;SDS011;62539;51.190;6.808;2022-08-19T03:44:01;5.82;;;5.28;;
62616;SDS011;62539;51.190;6.808;2022-08-19T03:46:29;5.80;;;5.20;;
62616;SDS011;62539;51.190;6.808;2022-08-19T03:48:58;6.33;;;5.60;;
62616;SDS011;62539;51.190;6.808;2022-08-19T03:51:30;5.80;;;5.28;;
62616;SDS011;62539;51.190;6.808;2022-08-19T03:54:03;9.73;;;5.78;;
62616;SDS011;62539;51.190;6.808;2022-08-19T03:56:35;8.32;;;6.60;;
62616;SDS011;62539;51.190;6.808;2022-08-19T03:59:02;6.95;;;6.10;;
62616;SDS011;62539;51.190;6.808;2022-08-19T04:01:30;7.95;;;6.40;;
62616;SDS011;62539;51.190;6.808;2022-08-19T04:03:56;7.80;;;6.07;;
62616;SDS011;62539;51.190;6.808;2022-08-19T04:06:25;9.45;;;5.93;;
62616;SDS011;62539;51.190;6.808;2022-08-19T04:08:55;11.40;;;6.47;;
62616;SDS011;62539;51.190;6.808;2022-08-19T04:11:24;7.18;;;5.70;;
62616;SDS011;62539;51.190;6.808;2022-08-19T04:16:20;8.32;;;6.70;;
62616;SDS011;62539;51.190;6.808;2022-08-19T04:18:49;10.25;;;7.45;;
62616;SDS011;62539;51.190;6.808;2022-08-19T04:21:20;12.05;;;8.98;;
62616;SDS011;62539;51.190;6.808;2022-08-19T04:23:50;12.85;;;9.95;;
62616;SDS011;62539;51.190;6.808;2022-08-19T04:26:18;13.88;;;11.00;;
62616;SDS011;62539;51.190;6.808;2022-08-19T04:28:50;15.35;;;12.07;;
62616;SDS011;62539;51.190;6.808;2022-08-19T04:31:23;14.90;;;12.00;;
62616;SDS011;62539;51.190;6.808;2022-08-19T04:33:55;16.13;;;12.10;;
62616;SDS011;62539;51.190;6.808;2022-08-19T04:36:25;18.45;;;12.70;;
62616;SDS011;62539;51.190;6.808;2022-08-19T04:38:56;16.95;;;11.10;;
62616;SDS011;62539;51.190;6.808;2022-08-19T04:44:10;14.13;;;7.57;;
62616;SDS011;62539;51.190;6.808;2022-08-19T04:46:37;16.27;;;9.25;;
62616;SDS011;62539;51.190;6.808;2022-08-19T04:49:04;16.48;;;8.65;;
62616;SDS011;62539;51.190;6.808;2022-08-19T04:51:33;14.43;;;9.60;;
62616;SDS011;62539;51.190;6.808;2022-08-19T04:53:59;15.02;;;10.13;;
62616;SDS011;62539;51.190;6.808;2022-08-19T04:56:27;14.57;;;9.45;;
62616;SDS011;62539;51.190;6.808;2022-08-19T04:58:54;13.95;;;10.90;;
62616;SDS011;62539;51.190;6.808;2022-08-19T05:01:23;16.17;;;10.77;;
62616;SDS011;62539;51.190;6.808;2022-08-19T05:03:53;16.58;;;12.05;;
62616;SDS011;62539;51.190;6.808;2022-08-19T05:06:21;16.83;;;14.90;;
62616;SDS011;62539;51.190;6.808;2022-08-19T05:08:48;15.80;;;14.13;;
62616;SDS011;62539;51.190;6.808;2022-08-19T05:11:16;21.10;;;12.80;;
62616;SDS011;62539;51.190;6.808;2022-08-19T05:13:54;22.65;;;13.88;;
62616;SDS011;62539;51.190;6.808;2022-08-19T05:16:20;21.45;;;13.48;;
62616;SDS011;62539;51.190;6.808;2022-08-19T05:18:47;20.83;;;16.77;;
62616;SDS011;62539;51.190;6.808;2022-08-19T05:21:32;28.52;;;20.58;;
62616;SDS011;62539;51.190;6.808;2022-08-19T05:24:19;28.63;;;21.35;;
62616;SDS011;62539;51.190;6.808;2022-08-19T05:26:48;27.80;;;20.95;;
62616;SDS011;62539;51.190;6.808;2022-08-19T05:29:17;25.40;;;20.85;;
62616;SDS011;62539;51.190;6.808;2022-08-19T05:31:46;34.05;;;22.48;;
62616;SDS011;62539;51.190;6.808;2022-08-19T05:34:17;27.90;;;21.33;;
62616;SDS011;62539;51.190;6.808;2022-08-19T05:36:46;27.73;;;21.58;;
62616;SDS011;62539;51.190;6.808;2022-08-19T05:39:19;24.48;;;21.55;;
62616;SDS011;62539;51.190;6.808;2022-08-19T05:41:46;27.73;;;21.60;;
62616;SDS011;62539;51.190;6.808;2022-08-19T05:44:17;26.23;;;21.52;;
62616;SDS011;62539;51.190;6.808;2022-08-19T05:46:45;31.15;;;23.60;;
62616;SDS011;62539;51.190;6.808;2022-08-19T05:49:12;58.53;;;23.48;;
62616;SDS011;62539;51.190;6.808;2022-08-19T05:51:40;36.50;;;25.10;;
62616;SDS011;62539;51.190;6.808;2022-08-19T05:54:07;31.80;;;25.98;;
62616;SDS011;62539;51.190;6.808;2022-08-19T05:56:33;39.33;;;26.58;;
62616;SDS011;62539;51.190;6.808;2022-08-19T05:59:02;29.90;;;26.50;;
62616;SDS011;62539;51.190;6.808;2022-08-19T06:03:59;40.78;;;28.30;;
62616;SDS011;62539;51.190;6.808;2022-08-19T06:06:25;33.72;;;26.30;;
62616;SDS011;62539;51.190;6.808;2022-08-19T06:08:50;34.83;;;28.30;;
62616;SDS011;62539;51.190;6.808;2022-08-19T06:11:23;37.13;;;26.63;;
62616;SDS011;62539;51.190;6.808;2022-08-19T06:14:00;31.17;;;26.48;;
62616;SDS011;62539;51.190;6.808;2022-08-19T06:16:32;30.98;;;25.52;;
62616;SDS011;62539;51.190;6.808;2022-08-19T06:19:00;35.33;;;26.90;;
62616;SDS011;62539;51.190;6.808;2022-08-19T06:21:28;35.28;;;29.42;;
62616;SDS011;62539;51.190;6.808;2022-08-19T06:23:56;32.58;;;27.98;;
62616;SDS011;62539;51.190;6.808;2022-08-19T06:26:22;36.20;;;32.10;;
62616;SDS011;62539;51.190;6.808;2022-08-19T06:28:49;32.25;;;28.85;;
62616;SDS011;62539;51.190;6.808;2022-08-19T06:31:20;35.25;;;27.90;;
62616;SDS011;62539;51.190;6.808;2022-08-19T06:33:52;39.08;;;29.38;;
62616;SDS011;62539;51.190;6.808;2022-08-19T06:36:19;36.50;;;29.25;;
62616;SDS011;62539;51.190;6.808;2022-08-19T06:38:57;37.50;;;29.92;;
62616;SDS011;62539;51.190;6.808;2022-08-19T06:41:24;36.58;;;30.38;;
62616;SDS011;62539;51.190;6.808;2022-08-19T06:43:51;40.13;;;30.55;;
62616;SDS011;62539;51.190;6.808;2022-08-19T06:46:18;39.08;;;30.50;;
62616;SDS011;62539;51.190;6.808;2022-08-19T06:48:44;35.30;;;31.17;;
62616;SDS011;62539;51.190;6.808;2022-08-19T06:51:11;40.42;;;30.67;;
62616;SDS011;62539;51.190;6.808;2022-08-19T06:53:40;31.65;;;27.83;;
62616;SDS011;62539;51.190;6.808;2022-08-19T06:56:10;36.72;;;28.77;;
62616;SDS011;62539;51.190;6.808;2022-08-19T06:58:36;36.80;;;30.38;;
62616;SDS011;62539;51.190;6.808;2022-08-19T07:01:02;37.95;;;30.33;;
62616;SDS011;62539;51.190;6.808;2022-08-19T07:03:30;36.53;;;27.83;;
62616;SDS011;62539;51.190;6.808;2022-08-19T07:06:13;39.67;;;27.77;;
62616;SDS011;62539;51.190;6.808;2022-08-19T07:08:43;32.72;;;26.25;;
62616;SDS011;62539;51.190;6.808;2022-08-19T07:11:12;34.65;;;27.33;;
62616;SDS011;62539;51.190;6.808;2022-08-19T07:13:41;36.67;;;25.23;;
62616;SDS011;62539;51.190;6.808;2022-08-19T07:16:13;37.13;;;26.95;;
62616;SDS011;62539;51.190;6.808;2022-08-19T07:18:44;39.50;;;29.02;;
62616;SDS011;62539;51.190;6.808;2022-08-19T07:21:13;35.10;;;27.25;;
62616;SDS011;62539;51.190;6.808;2022-08-19T07:23:43;36.17;;;28.58;;
62616;SDS011;62539;51.190;6.808;2022-08-19T07:26:11;34.45;;;27.88;;
62616;SDS011;62539;51.190;6.808;2022-08-19T07:28:46;36.10;;;29.10;;
62616;SDS011;62539;51.190;6.808;2022-08-19T07:31:15;39.22;;;27.98;;
62616;SDS011;62539;51.190;6.808;2022-08-19T07:33:46;32.75;;;27.83;;
62616;SDS011;62539;51.190;6.808;2022-08-19T07:36:15;34.85;;;26.65;;
62616;SDS011;62539;51.190;6.808;2022-08-19T07:38:46;40.95;;;26.00;;
62616;SDS011;62539;51.190;6.808;2022-08-19T07:41:15;31.25;;;22.38;;
62616;SDS011;62539;51.190;6.808;2022-08-19T07:43:45;31.63;;;23.77;;
62616;SDS011;62539;51.190;6.808;2022-08-19T07:46:11;35.97;;;26.42;;
62616;SDS011;62539;51.190;6.808;2022-08-19T07:48:38;35.25;;;26.23;;
62616;SDS011;62539;51.190;6.808;2022-08-19T07:51:07;42.45;;;25.63;;
62616;SDS011;62539;51.190;6.808;2022-08-19T07:53:35;33.67;;;24.30;;
62616;SDS011;62539;51.190;6.808;2022-08-19T07:56:03;31.42;;;24.83;;
62616;SDS011;62539;51.190;6.808;2022-08-19T07:58:31;33.53;;;23.67;;
62616;SDS011;62539;51.190;6.808;2022-08-19T08:01:03;31.15;;;24.25;;
62616;SDS011;62539;51.190;6.808;2022-08-19T08:03:32;35.17;;;23.48;;
62616;SDS011;62539;51.190;6.808;2022-08-19T08:06:17;31.80;;;23.70;;
62616;SDS011;62539;51.190;6.808;2022-08-19T08:09:02;32.40;;;23.10;;
62616;SDS011;62539;51.190;6.808;2022-08-19T08:11:36;26.55;;;17.88;;
62616;SDS011;62539;51.190;6.808;2022-08-19T08:14:04;27.33;;;17.98;;
62616;SDS011;62539;51.190;6.808;2022-08-19T08:16:30;22.08;;;18.10;;
62616;SDS011;62539;51.190;6.808;2022-08-19T08:19:03;20.55;;;15.63;;
62616;SDS011;62539;51.190;6.808;2022-08-19T08:21:31;20.92;;;15.00;;
62616;SDS011;62539;51.190;6.808;2022-08-19T08:23:58;21.48;;;15.25;;
62616;SDS011;62539;51.190;6.808;2022-08-19T08:26:24;22.20;;;15.45;;
62616;SDS011;62539;51.190;6.808;2022-08-19T08:28:50;19.85;;;15.15;;
62616;SDS011;62539;51.190;6.808;2022-08-19T08:31:17;27.27;;;16.23;;
62616;SDS011;62539;51.190;6.808;2022-08-19T08:33:44;19.60;;;14.82;;
62616;SDS011;62539;51.190;6.808;2022-08-19T08:36:10;27.25;;;16.90;;
62616;SDS011;62539;51.190;6.808;2022-08-19T08:38:38;21.52;;;15.75;;
62616;SDS011;62539;51.190;6.808;2022-08-19T08:41:09;22.13;;;15.73;;
62616;SDS011;62539;51.190;6.808;2022-08-19T08:43:48;27.13;;;19.45;;
62616;SDS011;62539;51.190;6.808;2022-08-19T08:46:23;27.45;;;20.63;;
62616;SDS011;62539;51.190;6.808;2022-08-19T08:52:07;27.00;;;19.85;;
62616;SDS011;62539;51.190;6.808;2022-08-19T08:54:41;29.70;;;20.85;;
62616;SDS011;62539;51.190;6.808;2022-08-19T08:57:11;36.20;;;22.45;;
62616;SDS011;62539;51.190;6.808;2022-08-19T08:59:45;29.42;;;21.13;;
62616;SDS011;62539;51.190;6.808;2022-08-19T09:02:17;30.25;;;20.17;;
62616;SDS011;62539;51.190;6.808;2022-08-19T09:04:43;31.90;;;19.73;;
62616;SDS011;62539;51.190;6.808;2022-08-19T09:10:19;27.58;;;18.45;;
62616;SDS011;62539;51.190;6.808;2022-08-19T09:15:50;28.38;;;18.25;;
62616;SDS011;62539;51.190;6.808;2022-08-19T09:18:24;25.25;;;18.73;;
62616;SDS011;62539;51.190;6.808;2022-08-19T09:20:49;25.20;;;17.48;;
62616;SDS011;62539;51.190;6.808;2022-08-19T09:23:15;24.00;;;17.13;;
62616;SDS011;62539;51.190;6.808;2022-08-19T09:25:41;25.85;;;18.75;;
62616;SDS011;62539;51.190;6.808;2022-08-19T09:28:06;22.73;;;16.73;;
62616;SDS011;62539;51.190;6.808;2022-08-19T09:30:33;23.60;;;16.23;;
62616;SDS011;62539;51.190;6.808;2022-08-19T09:33:05;26.35;;;15.20;;
62616;SDS011;62539;51.190;6.808;2022-08-19T09:35:32;19.30;;;14.88;;
62616;SDS011;62539;51.190;6.808;2022-08-19T09:37:58;21.35;;;14.25;;
62616;SDS011;62539;51.190;6.808;2022-08-19T09:40:26;22.35;;;13.90;;
62616;SDS011;62539;51.190;6.808;2022-08-19T09:42:54;24.52;;;13.95;;
62616;SDS011;62539;51.190;6.808;2022-08-19T09:45:22;20.42;;;13.57;;
62616;SDS011;62539;51.190;6.808;2022-08-19T09:47:48;18.40;;;12.55;;
62616;SDS011;62539;51.190;6.808;2022-08-19T09:50:16;16.73;;;12.23;;
62616;SDS011;62539;51.190;6.808;2022-08-19T09:52:43;28.85;;;12.70;;
62616;SDS011;62539;51.190;6.808;2022-08-19T09:55:10;23.73;;;12.38;;
62616;SDS011;62539;51.190;6.808;2022-08-19T09:57:37;16.83;;;11.75;;
62616;SDS011;62539;51.190;6.808;2022-08-19T10:00:04;21.23;;;11.80;;
62616;SDS011;62539;51.190;6.808;2022-08-19T10:02:33;31.35;;;14.65;;
62616;SDS011;62539;51.190;6.808;2022-08-19T10:05:00;27.52;;;13.15;;
62616;SDS011;62539;51.190;6.808;2022-08-19T10:07:44;18.58;;;12.18;;
62616;SDS011;62539;51.190;6.808;2022-08-19T10:10:09;24.90;;;13.18;;
62616;SDS011;62539;51.190;6.808;2022-08-19T10:12:35;22.92;;;11.93;;
62616;SDS011;62539;51.190;6.808;2022-08-19T10:15:02;17.95;;;11.32;;
62616;SDS011;62539;51.190;6.808;2022-08-19T10:17:29;18.05;;;9.63;;
62616;SDS011;62539;51.190;6.808;2022-08-19T10:19:56;20.13;;;10.32;;
62616;SDS011;62539;51.190;6.808;2022-08-19T10:22:21;17.90;;;10.32;;
62616;SDS011;62539;51.190;6.808;2022-08-19T10:24:47;15.88;;;9.50;;
62616;SDS011;62539;51.190;6.808;2022-08-19T10:27:14;12.98;;;9.00;;
62616;SDS011;62539;51.190;6.808;2022-08-19T10:29:40;13.40;;;8.10;;
62616;SDS011;62539;51.190;6.808;2022-08-19T10:32:06;11.48;;;8.63;;
62616;SDS011;62539;51.190;6.808;2022-08-19T10:34:35;13.25;;;9.93;;
62616;SDS011;62539;51.190;6.808;2022-08-19T10:37:04;12.45;;;8.82;;
62616;SDS011;62539;51.190;6.808;2022-08-19T10:39:34;14.38;;;8.77;;
62616;SDS011;62539;51.190;6.808;2022-08-19T10:42:07;17.52;;;9.95;;
62616;SDS011;62539;51.190;6.808;2022-08-19T10:44:35;13.70;;;8.65;;
62616;SDS011;62539;51.190;6.808;2022-08-19T10:47:01;20.15;;;9.43;;
62616;SDS011;62539;51.190;6.808;2022-08-19T10:49:28;12.90;;;8.77;;
62616;SDS011;62539;51.190;6.808;2022-08-19T10:51:54;14.82;;;8.55;;
62616;SDS011;62539;51.190;6.808;2022-08-19T10:54:39;12.55;;;8.07;;
62616;SDS011;62539;51.190;6.808;2022-08-19T10:57:23;11.55;;;7.53;;
62616;SDS011;62539;51.190;6.808;2022-08-19T10:59:54;9.32;;;7.05;;
62616;SDS011;62539;51.190;6.808;2022-08-19T11:02:22;9.88;;;7.10;;
62616;SDS011;62539;51.190;6.808;2022-08-19T11:04:48;8.77;;;7.07;;
62616;SDS011;62539;51.190;6.808;2022-08-19T11:07:15;9.48;;;6.32;;
62616;SDS011;62539;51.190;6.808;2022-08-19T11:09:41;10.85;;;6.82;;
62616;SDS011;62539;51.190;6.808;2022-08-19T11:12:07;8.63;;;6.82;;
62616;SDS011;62539;51.190;6.808;2022-08-19T11:14:34;9.82;;;7.22;;
62616;SDS011;62539;51.190;6.808;2022-08-19T11:17:01;12.32;;;6.85;;
62616;SDS011;62539;51.190;6.808;2022-08-19T11:19:28;13.73;;;6.90;;
62616;SDS011;62539;51.190;6.808;2022-08-19T11:21:54;10.20;;;7.75;;
62616;SDS011;62539;51.190;6.808;2022-08-19T11:24:22;8.35;;;6.70;;
62616;SDS011;62539;51.190;6.808;2022-08-19T11:26:51;11.48;;;7.60;;
62616;SDS011;62539;51.190;6.808;2022-08-19T11:29:24;10.48;;;7.05;;
62616;SDS011;62539;51.190;6.808;2022-08-19T11:31:50;10.07;;;6.78;;
62616;SDS011;62539;51.190;6.808;2022-08-19T11:34:26;13.57;;;6.40;;
62616;SDS011;62539;51.190;6.808;2022-08-19T11:36:53;9.02;;;7.18;;
62616;SDS011;62539;51.190;6.808;2022-08-19T11:39:23;8.93;;;7.00;;
62616;SDS011;62539;51.190;6.808;2022-08-19T11:41:51;12.02;;;6.75;;
62616;SDS011;62539;51.190;6.808;2022-08-19T11:44:16;7.25;;;6.28;;
62616;SDS011;62539;51.190;6.808;2022-08-19T11:46:43;8.85;;;5.70;;
62616;SDS011;62539;51.190;6.808;2022-08-19T11:49:11;10.00;;;5.55;;
62616;SDS011;62539;51.190;6.808;2022-08-19T11:51:38;13.52;;;6.15;;
62616;SDS011;62539;51.190;6.808;2022-08-19T11:54:04;7.68;;;5.80;;
62616;SDS011;62539;51.190;6.808;2022-08-19T11:56:31;9.88;;;6.20;;
62616;SDS011;62539;51.190;6.808;2022-08-19T11:58:57;9.85;;;5.90;;
62616;SDS011;62539;51.190;6.808;2022-08-19T12:01:23;10.80;;;5.47;;
62616;SDS011;62539;51.190;6.808;2022-08-19T12:03:51;9.43;;;5.57;;
62616;SDS011;62539;51.190;6.808;2022-08-19T12:06:20;8.73;;;5.57;;
62616;SDS011;62539;51.190;6.808;2022-08-19T12:08:54;9.65;;;5.18;;
62616;SDS011;62539;51.190;6.808;2022-08-19T12:11:21;11.60;;;5.60;;
62616;SDS011;62539;51.190;6.808;2022-08-19T12:13:47;13.98;;;5.40;;
62616;SDS011;62539;51.190;6.808;2022-08-19T12:16:20;8.02;;;5.97;;
62616;SDS011;62539;51.190;6.808;2022-08-19T12:18:51;7.55;;;5.20;;
62616;SDS011;62539;51.190;6.808;2022-08-19T12:21:20;10.50;;;5.68;;
62616;SDS011;62539;51.190;6.808;2022-08-19T12:23:50;7.63;;;5.30;;
62616;SDS011;62539;51.190;6.808;2022-08-19T12:26:16;8.02;;;5.75;;
62616;SDS011;62539;51.190;6.808;2022-08-19T12:28:42;10.77;;;5.28;;
62616;SDS011;62539;51.190;6.808;2022-08-19T12:31:08;7.93;;;5.45;;
62616;SDS011;62539;51.190;6.808;2022-08-19T12:33:36;7.30;;;5.60;;
62616;SDS011;62539;51.190;6.808;2022-08-19T12:36:03;12.85;;;5.88;;
62616;SDS011;62539;51.190;6.808;2022-08-19T12:38:32;10.43;;;5.55;;
62616;SDS011;62539;51.190;6.808;2022-08-19T12:40:59;5.65;;;4.88;;
62616;SDS011;62539;51.190;6.808;2022-08-19T12:43:25;7.45;;;4.75;;
62616;SDS011;62539;51.190;6.808;2022-08-19T12:45:52;7.88;;;5.20;;
62616;SDS011;62539;51.190;6.808;2022-08-19T12:48:17;8.15;;;5.28;;
62616;SDS011;62539;51.190;6.808;2022-08-19T12:50:43;7.70;;;4.78;;
62616;SDS011;62539;51.190;6.808;2022-08-19T12:53:10;7.97;;;4.50;;
62616;SDS011;62539;51.190;6.808;2022-08-19T12:55:36;6.55;;;4.38;;
62616;SDS011;62539;51.190;6.808;2022-08-19T12:58:02;6.63;;;4.65;;
62616;SDS011;62539;51.190;6.808;2022-08-19T13:00:28;10.65;;;4.15;;
62616;SDS011;62539;51.190;6.808;2022-08-19T13:02:55;5.88;;;4.85;;
62616;SDS011;62539;51.190;6.808;2022-08-19T13:05:21;8.10;;;4.35;;
62616;SDS011;62539;51.190;6.808;2022-08-19T13:07:57;5.95;;;4.20;;
62616;SDS011;62539;51.190;6.808;2022-08-19T13:10:25;6.82;;;4.28;;
62616;SDS011;62539;51.190;6.808;2022-08-19T13:12:56;5.43;;;4.00;;
62616;SDS011;62539;51.190;6.808;2022-08-19T13:15:24;9.95;;;4.20;;
62616;SDS011;62539;51.190;6.808;2022-08-19T13:17:50;5.10;;;4.15;;
62616;SDS011;62539;51.190;6.808;2022-08-19T13:20:18;10.15;;;4.28;;
62616;SDS011;62539;51.190;6.808;2022-08-19T13:22:45;7.85;;;4.05;;
62616;SDS011;62539;51.190;6.808;2022-08-19T13:25:13;7.93;;;4.22;;
62616;SDS011;62539;51.190;6.808;2022-08-19T13:27:42;9.20;;;3.72;;
62616;SDS011;62539;51.190;6.808;2022-08-19T13:30:09;7.18;;;4.20;;
62616;SDS011;62539;51.190;6.808;2022-08-19T13:32:56;6.70;;;4.00;;
62616;SDS011;62539;51.190;6.808;2022-08-19T13:35:37;8.63;;;4.30;;
62616;SDS011;62539;51.190;6.808;2022-08-19T13:38:05;8.05;;;3.90;;
62616;SDS011;62539;51.190;6.808;2022-08-19T13:40:31;10.05;;;4.70;;
62616;SDS011;62539;51.190;6.808;2022-08-19T13:42:58;5.40;;;4.10;;
62616;SDS011;62539;51.190;6.808;2022-08-19T13:45:27;9.02;;;4.25;;
62616;SDS011;62539;51.190;6.808;2022-08-19T13:47:57;11.95;;;3.97;;
62616;SDS011;62539;51.190;6.808;2022-08-19T13:50:24;9.75;;;4.15;;
62616;SDS011;62539;51.190;6.808;2022-08-19T13:52:53;4.68;;;4.00;;
62616;SDS011;62539;51.190;6.808;2022-08-19T13:55:21;10.60;;;3.63;;
62616;SDS011;62539;51.190;6.808;2022-08-19T13:57:50;6.70;;;3.78;;
62616;SDS011;62539;51.190;6.808;2022-08-19T14:00:17;7.15;;;3.85;;
62616;SDS011;62539;51.190;6.808;2022-08-19T14:02:45;5.57;;;3.70;;
62616;SDS011;62539;51.190;6.808;2022-08-19T14:05:15;6.75;;;3.80;;
62616;SDS011;62539;51.190;6.808;2022-08-19T14:07:41;5.53;;;3.75;;
62616;SDS011;62539;51.190;6.808;2022-08-19T14:10:08;6.68;;;3.63;;
62616;SDS011;62539;51.190;6.808;2022-08-19T14:12:36;4.97;;;3.67;;
62616;SDS011;62539;51.190;6.808;2022-08-19T14:15:02;8.98;;;4.00;;
62616;SDS011;62539;51.190;6.808;2022-08-19T14:17:30;5.22;;;4.07;;
62616;SDS011;62539;51.190;6.808;2022-08-19T14:19:56;20.13;;;3.88;;
62616;SDS011;62539;51.190;6.808;2022-08-19T14:22:28;11.82;;;3.47;;
62616;SDS011;62539;51.190;6.808;2022-08-19T14:24:55;8.10;;;3.67;;
62616;SDS011;62539;51.190;6.808;2022-08-19T14:27:22;11.98;;;3.70;;
62616;SDS011;62539;51.190;6.808;2022-08-19T14:29:48;11.48;;;3.70;;
62616;SDS011;62539;51.190;6.808;2022-08-19T14:32:14;11.20;;;3.53;;
62616;SDS011;62539;51.190;6.808;2022-08-19T14:34:40;7.00;;;3.70;;
62616;SDS011;62539;51.190;6.808;2022-08-19T14:37:05;12.15;;;3.75;;
62616;SDS011;62539;51.190;6.808;2022-08-19T14:39:31;9.15;;;3.40;;
62616;SDS011;62539;51.190;6.808;2022-08-19T14:41:56;6.55;;;3.33;;
62616;SDS011;62539;51.190;6.808;2022-08-19T14:44:34;8.40;;;3.15;;
62616;SDS011;62539;51.190;6.808;2022-08-19T14:47:00;4.45;;;3.40;;
62616;SDS011;62539;51.190;6.808;2022-08-19T14:49:26;7.90;;;3.53;;
62616;SDS011;62539;51.190;6.808;2022-08-19T14:51:51;8.55;;;3.20;;
62616;SDS011;62539;51.190;6.808;2022-08-19T14:54:17;5.20;;;2.90;;
62616;SDS011;62539;51.190;6.808;2022-08-19T14:56:43;5.95;;;3.20;;
62616;SDS011;62539;51.190;6.808;2022-08-19T14:59:08;7.75;;;3.08;;
62616;SDS011;62539;51.190;6.808;2022-08-19T15:01:34;4.03;;;3.10;;
62616;SDS011;62539;51.190;6.808;2022-08-19T15:03:59;4.05;;;3.20;;
62616;SDS011;62539;51.190;6.808;2022-08-19T15:06:26;4.32;;;3.05;;